Time,TemperatureF,DewpointF,PressureIn,WindDirection,WindDirectionDegrees,WindSpeedMPH,WindSpeedGustMPH,Humidity,HourlyPrecipIn,Conditions,Clouds,dailyrainin,SolarRadiationWatts/m^2,SoftwareType,DateUTC
2013-05-14 00:21:00,54.0,30.0,-100.00,SSW,209,2.0,4.0,40,-99.99,,,-99.99,0.000000,,2013-05-14 07:21:00,
2013-05-14 00:30:00,54.0,29.0,-100.00,SW,218,2.0,3.0,38,-99.99,,,-99.99,0.000000,,2013-05-14 07:30:00,
2013-05-14 01:21:00,54.0,29.0,-100.00,SW,218,2.0,3.0,38,-99.99,,,-99.99,0.000000,,2013-05-14 08:21:00,
2013-05-14 01:30:00,53.0,29.0,-100.00,NW,315,1.0,1.0,40,-99.99,,,-99.99,0.000000,,2013-05-14 08:30:00,
2013-05-14 02:21:00,53.0,29.0,-100.00,NW,315,1.0,1.0,40,-99.99,,,-99.99,0.000000,,2013-05-14 09:21:00,
2013-05-14 11:22:00,62.0,28.0,-100.00,ESE,110,3.0,8.0,27,-99.99,,,-99.99,628.000000,,2013-05-14 18:22:00,
2013-05-14 11:30:00,61.0,33.0,-100.00,West,274,2.0,5.0,34,-99.99,,,-99.99,311.000000,,2013-05-14 18:30:00,
2013-05-14 12:30:00,59.0,36.0,-100.00,WSW,240,1.0,5.0,43,-99.99,,,-99.99,85.000000,,2013-05-14 19:30:00,
2013-05-14 13:23:00,59.0,36.0,-100.00,WSW,240,1.0,5.0,43,-99.99,,,-99.99,85.000000,,2013-05-14 20:23:00,
2013-05-14 13:30:00,54.0,41.0,-100.00,NNW,329,2.0,3.0,63,-99.99,,,-99.99,60.000000,,2013-05-14 20:30:00,
2013-05-14 14:23:00,54.0,41.0,-100.00,NNW,329,2.0,3.0,63,-99.99,,,-99.99,60.000000,,2013-05-14 21:23:00,
2013-05-14 14:30:00,55.0,45.0,-100.00,South,188,3.0,5.0,68,-99.99,,,-99.99,129.000000,,2013-05-14 21:30:00,
2013-05-14 15:24:00,55.0,45.0,-100.00,South,188,3.0,5.0,68,-99.99,,,-99.99,129.000000,,2013-05-14 22:24:00,
2013-05-14 15:30:00,48.0,35.0,-100.00,ESE,116,7.0,16.0,60,-99.99,,,-99.99,29.000000,,2013-05-14 22:30:00,
2013-05-14 16:30:00,49.0,35.0,-100.00,NNW,328,1.0,2.0,59,-99.99,,,-99.99,32.000000,,2013-05-14 23:30:00,
2013-05-14 17:21:00,49.0,35.0,-100.00,NNW,328,1.0,2.0,59,-99.99,,,-99.99,32.000000,,2013-05-15 00:21:00,
2013-05-14 17:30:00,54.0,41.0,-100.00,NW,310,2.0,4.0,61,-99.99,,,-99.99,130.000000,,2013-05-15 00:30:00,
2013-05-14 18:21:00,54.0,41.0,-100.00,NW,310,2.0,4.0,61,-99.99,,,-99.99,130.000000,,2013-05-15 01:21:00,
2013-05-14 18:30:00,57.0,45.0,-100.00,WNW,285,1.0,4.0,64,-99.99,,,-99.99,179.000000,,2013-05-15 01:30:00,
2013-05-14 19:21:00,57.0,45.0,-100.00,WNW,285,1.0,4.0,64,-99.99,,,-99.99,179.000000,,2013-05-15 02:21:00,
2013-05-14 19:30:00,50.0,43.0,-100.00,NW,309,2.0,4.0,76,-99.99,,,-99.99,18.000000,,2013-05-15 02:30:00,
2013-05-14 20:30:00,48.0,42.0,-100.00,NW,326,1.0,2.0,80,-99.99,,,-99.99,0.000000,,2013-05-15 03:30:00,
2013-05-14 21:24:00,48.0,42.0,-100.00,NW,326,1.0,2.0,80,-99.99,,,-99.99,0.000000,,2013-05-15 04:24:00,
2013-05-14 21:30:00,48.0,41.0,-100.00,NNW,340,2.0,3.0,75,-99.99,,,-99.99,0.000000,,2013-05-15 04:30:00,
2013-05-14 22:22:00,48.0,41.0,-100.00,NNW,340,2.0,3.0,75,-99.99,,,-99.99,0.000000,,2013-05-15 05:22:00,
2013-05-14 22:30:00,49.0,37.0,-100.00,NNE,27,1.0,3.0,64,-99.99,,,-99.99,0.000000,,2013-05-15 05:30:00,
2013-05-14 23:21:00,49.0,37.0,-100.00,NNE,27,1.0,3.0,64,-99.99,,,-99.99,0.000000,,2013-05-15 06:21:00,
2013-05-14 23:30:00,49.0,27.0,-100.00,NW,312,2.0,2.0,41,-99.99,,,-99.99,0.000000,,2013-05-15 06:30:00,